createdAt,value
2022-10-22T00:00:07.807Z,2.20
2022-10-22T00:02:34.672Z,2.50
2022-10-22T00:05:01.861Z,2.40
2022-10-22T00:07:29.102Z,2.77
2022-10-22T00:09:55.880Z,2.37
2022-10-22T00:12:22.871Z,2.27
2022-10-22T00:14:50.942Z,2.40
2022-10-22T00:17:18.241Z,2.23
2022-10-22T00:19:45.141Z,2.67
2022-10-22T00:22:12.480Z,2.80
2022-10-22T00:24:39.918Z,2.80
2022-10-22T00:27:08.697Z,2.80
2022-10-22T00:29:35.532Z,2.70
2022-10-22T00:32:02.726Z,3.00
2022-10-22T00:34:29.699Z,2.30
2022-10-22T00:36:56.765Z,2.73
2022-10-22T00:39:26.011Z,3.00
2022-10-22T00:41:54.610Z,2.40
2022-10-22T00:44:59.379Z,2.80
2022-10-22T00:47:28.991Z,2.73
2022-10-22T00:49:56.506Z,2.33
2022-10-22T00:52:24.087Z,2.70
2022-10-22T00:54:51.892Z,2.63
2022-10-22T00:57:20.367Z,2.37
2022-10-22T00:59:48.751Z,2.80
2022-10-22T01:02:16.765Z,2.70
2022-10-22T01:04:43.797Z,2.50
2022-10-22T01:07:19.035Z,2.73
2022-10-22T01:10:26.770Z,2.67
2022-10-22T01:13:10.982Z,2.80
2022-10-22T01:15:51.073Z,2.70
2022-10-22T01:18:47.959Z,3.10
2022-10-22T01:21:31.448Z,2.83
2022-10-22T01:24:26.665Z,2.90
2022-10-22T01:27:38.979Z,2.70
2022-10-22T01:30:08.993Z,2.87
2022-10-22T01:32:48.266Z,2.43
2022-10-22T01:35:23.083Z,2.87
2022-10-22T01:37:55.943Z,3.00
2022-10-22T01:40:24.419Z,3.00
2022-10-22T01:42:59.390Z,2.90
2022-10-22T01:45:28.023Z,2.87
2022-10-22T01:48:05.312Z,2.73
2022-10-22T01:50:46.039Z,2.87
2022-10-22T01:53:18.878Z,2.77
2022-10-22T01:56:10.403Z,3.20
2022-10-22T01:59:15.872Z,2.80
2022-10-22T02:01:55.298Z,3.23
2022-10-22T02:04:33.749Z,3.07
2022-10-22T02:07:06.972Z,2.50
2022-10-22T02:09:35.475Z,2.57
2022-10-22T02:14:41.324Z,2.60
2022-10-22T02:17:15.928Z,2.80
2022-10-22T02:19:56.574Z,2.47
2022-10-22T02:22:25.207Z,2.57
2022-10-22T02:24:52.114Z,2.63
2022-10-22T02:27:38.006Z,2.50
2022-10-22T02:30:08.340Z,2.50
2022-10-22T02:33:18.038Z,2.40
2022-10-22T02:35:45.864Z,2.50
2022-10-22T02:38:13.814Z,2.60
2022-10-22T02:40:42.107Z,2.53
2022-10-22T02:43:08.992Z,2.77
2022-10-22T02:45:37.521Z,2.60
2022-10-22T02:48:05.419Z,2.40
2022-10-22T02:50:32.284Z,2.33
2022-10-22T02:52:59.447Z,2.47
2022-10-22T02:55:26.486Z,3.27
2022-10-22T02:57:53.727Z,2.10
2022-10-22T03:00:20.886Z,2.33
2022-10-22T03:02:47.828Z,2.17
2022-10-22T03:05:14.811Z,2.50
2022-10-22T03:07:41.798Z,2.57
2022-10-22T03:10:09.345Z,2.17
2022-10-22T03:12:36.262Z,1.90
2022-10-22T03:15:03.578Z,2.33
2022-10-22T03:17:30.920Z,2.73
2022-10-22T03:19:58.097Z,2.23
2022-10-22T03:22:33.102Z,2.57
2022-10-22T03:25:07.975Z,2.50
2022-10-22T03:27:37.695Z,2.23
2022-10-22T03:30:07.125Z,2.57
2022-10-22T03:32:33.994Z,2.10
2022-10-22T03:37:33.937Z,1.90
2022-10-22T03:40:01.427Z,2.07
2022-10-22T03:42:28.350Z,2.00
2022-10-22T03:44:55.104Z,2.17
2022-10-22T03:47:24.529Z,2.10
2022-10-22T03:49:52.193Z,1.97
2022-10-22T03:52:19.118Z,2.23
2022-10-22T03:54:46.306Z,1.90
2022-10-22T03:57:13.298Z,2.30
2022-10-22T03:59:43.774Z,2.10
2022-10-22T04:02:12.842Z,2.10
2022-10-22T04:04:39.840Z,1.73
2022-10-22T04:07:08.058Z,2.30
2022-10-22T04:09:36.067Z,1.90
2022-10-22T04:12:05.592Z,1.73
2022-10-22T04:14:32.583Z,2.03
2022-10-22T04:16:59.489Z,2.10
2022-10-22T04:19:26.616Z,1.60
2022-10-22T04:21:53.620Z,2.00
2022-10-22T04:24:20.666Z,1.80
2022-10-22T04:26:47.474Z,1.90
2022-10-22T04:29:16.198Z,1.80
2022-10-22T04:31:43.477Z,1.97
2022-10-22T04:34:10.667Z,1.80
2022-10-22T04:36:37.679Z,1.90
2022-10-22T04:39:05.321Z,2.10
2022-10-22T04:41:35.288Z,2.30
2022-10-22T04:44:02.947Z,2.20
2022-10-22T04:46:32.214Z,1.90
2022-10-22T04:48:59.861Z,1.90
2022-10-22T04:51:27.930Z,1.93
2022-10-22T04:53:55.127Z,2.00
2022-10-22T04:56:25.068Z,1.70
2022-10-22T04:58:58.374Z,1.77
2022-10-22T05:01:36.948Z,2.37
2022-10-22T05:04:08.829Z,1.90
2022-10-22T05:06:36.972Z,1.80
2022-10-22T05:09:06.778Z,2.03
2022-10-22T05:11:38.902Z,2.03
2022-10-22T05:14:07.779Z,1.77
2022-10-22T05:16:35.576Z,1.70
2022-10-22T05:19:03.304Z,1.67
2022-10-22T05:21:30.540Z,2.00
2022-10-22T05:23:59.943Z,1.80
2022-10-22T05:26:27.964Z,1.70
2022-10-22T05:28:55.076Z,1.93
2022-10-22T05:31:22.081Z,2.00
2022-10-22T05:33:49.125Z,1.97
2022-10-22T05:36:19.745Z,2.73
2022-10-22T05:38:47.248Z,2.50
2022-10-22T05:41:17.324Z,3.20
2022-10-22T05:43:44.257Z,2.43
2022-10-22T05:46:22.152Z,2.70
2022-10-22T05:48:54.075Z,2.67
2022-10-22T05:51:21.248Z,2.70
2022-10-22T05:53:52.950Z,1.93
2022-10-22T05:56:20.343Z,1.97
2022-10-22T05:58:47.626Z,2.57
2022-10-22T06:01:19.406Z,2.27
2022-10-22T06:03:47.139Z,2.13
2022-10-22T06:06:36.842Z,1.90
2022-10-22T06:09:23.625Z,1.93
2022-10-22T06:11:51.078Z,2.20
2022-10-22T06:14:19.624Z,2.40
2022-10-22T06:16:46.581Z,2.60
2022-10-22T06:19:15.091Z,2.00
2022-10-22T06:21:42.640Z,2.33
2022-10-22T06:24:10.958Z,2.20
2022-10-22T06:26:38.248Z,2.20
2022-10-22T06:29:05.028Z,1.80
2022-10-22T06:31:36.932Z,2.70
2022-10-22T06:34:05.875Z,2.43
2022-10-22T06:36:32.897Z,2.57
2022-10-22T06:38:59.760Z,2.63
2022-10-22T06:41:28.773Z,2.40
2022-10-22T06:43:57.679Z,2.80
2022-10-22T06:46:25.612Z,2.07
2022-10-22T06:48:56.110Z,2.37
2022-10-22T06:51:23.486Z,2.77
2022-10-22T06:53:50.929Z,2.20
2022-10-22T06:56:20.543Z,2.30
2022-10-22T06:58:52.356Z,2.33
2022-10-22T07:01:22.186Z,2.37
2022-10-22T07:03:51.238Z,2.20
2022-10-22T07:06:19.269Z,3.20
2022-10-22T07:08:46.354Z,2.37
2022-10-22T07:11:15.407Z,2.00
2022-10-22T07:13:42.905Z,2.00
2022-10-22T07:16:10.417Z,2.13
2022-10-22T07:18:38.764Z,1.90
2022-10-22T07:21:07.109Z,2.40
2022-10-22T07:23:34.302Z,2.33
2022-10-22T07:26:02.851Z,2.97
2022-10-22T07:28:31.010Z,2.00
2022-10-22T07:30:58.298Z,2.00
2022-10-22T07:33:25.285Z,2.07
2022-10-22T07:35:58.075Z,2.07
2022-10-22T07:38:25.136Z,1.80
2022-10-22T07:40:51.978Z,2.07
2022-10-22T07:43:18.837Z,2.17
2022-10-22T07:45:45.609Z,2.43
2022-10-22T07:48:12.677Z,2.10
2022-10-22T07:50:39.575Z,2.20
2022-10-22T07:53:06.540Z,2.27
2022-10-22T07:55:34.404Z,2.40
2022-10-22T07:58:01.683Z,2.07
2022-10-22T08:00:28.654Z,2.37
2022-10-22T08:02:55.492Z,2.10
2022-10-22T08:05:22.477Z,2.07
2022-10-22T08:07:49.635Z,2.33
2022-10-22T08:10:16.420Z,2.30
2022-10-22T08:12:44.116Z,2.17
2022-10-22T08:15:11.130Z,1.97
2022-10-22T08:17:38.191Z,2.00
2022-10-22T08:20:05.496Z,2.20
2022-10-22T08:22:32.324Z,2.13
2022-10-22T08:25:00.531Z,1.90
2022-10-22T08:27:27.902Z,1.87
2022-10-22T08:29:54.659Z,1.90
2022-10-22T08:32:22.108Z,2.33
2022-10-22T08:34:49.109Z,3.27
2022-10-22T08:37:17.928Z,2.10
2022-10-22T08:39:45.168Z,1.87
2022-10-22T08:42:28.650Z,2.10
2022-10-22T08:45:13.491Z,2.30
2022-10-22T08:47:42.997Z,1.90
2022-10-22T08:50:15.445Z,2.23
2022-10-22T08:52:48.030Z,1.83
2022-10-22T08:55:15.793Z,2.10
2022-10-22T08:58:03.560Z,1.67
2022-10-22T09:01:00.049Z,1.80
2022-10-22T09:03:49.666Z,2.20
2022-10-22T09:06:29.315Z,1.73
2022-10-22T09:08:58.775Z,2.13
2022-10-22T09:14:51.179Z,2.03
2022-10-22T09:17:34.122Z,1.70
2022-10-22T09:20:26.095Z,2.13
2022-10-22T09:23:37.976Z,1.80
2022-10-22T09:26:26.275Z,1.67
2022-10-22T09:28:54.925Z,2.00
2022-10-22T09:31:22.699Z,2.17
2022-10-22T09:33:51.493Z,1.60
2022-10-22T09:36:23.273Z,1.80
2022-10-22T09:38:53.322Z,2.17
2022-10-22T09:41:25.232Z,1.40
2022-10-22T09:43:52.535Z,2.03
2022-10-22T09:46:22.557Z,2.10
2022-10-22T09:49:12.245Z,1.60
2022-10-22T09:51:53.694Z,2.17
2022-10-22T09:54:34.397Z,1.43
2022-10-22T09:57:10.411Z,1.77
2022-10-22T09:59:41.331Z,1.70
2022-10-22T10:02:37.554Z,1.93
2022-10-22T10:05:05.543Z,2.10
2022-10-22T10:07:34.537Z,1.97
2022-10-22T10:10:01.909Z,1.97
2022-10-22T10:12:57.572Z,2.00
2022-10-22T10:15:36.607Z,1.70
2022-10-22T10:18:27.802Z,2.30
2022-10-22T10:20:57.702Z,2.13
2022-10-22T10:23:53.688Z,1.73
2022-10-22T10:26:48.803Z,2.67
2022-10-22T10:29:50.020Z,1.87
2022-10-22T10:32:55.205Z,1.87
2022-10-22T10:35:31.343Z,1.77
2022-10-22T10:38:07.064Z,2.00
2022-10-22T10:40:46.342Z,2.10
2022-10-22T10:43:39.022Z,1.43
2022-10-22T10:46:20.231Z,1.80
2022-10-22T10:49:19.076Z,1.80
2022-10-22T10:52:46.132Z,2.13
2022-10-22T10:55:27.438Z,2.07
2022-10-22T10:57:54.554Z,1.97
2022-10-22T11:00:22.306Z,2.10
2022-10-22T11:03:37.398Z,2.80
2022-10-22T11:06:09.941Z,2.30
2022-10-22T11:08:39.819Z,2.90
2022-10-22T11:11:18.381Z,2.33
2022-10-22T11:13:47.962Z,2.03
2022-10-22T11:16:25.841Z,2.30
2022-10-22T11:19:04.462Z,2.40
2022-10-22T11:21:43.959Z,2.33
2022-10-22T11:24:10.878Z,2.10
2022-10-22T11:26:45.262Z,2.47
2022-10-22T11:29:21.286Z,2.50
2022-10-22T11:31:49.359Z,2.20
2022-10-22T11:34:34.017Z,2.23
2022-10-22T11:37:03.483Z,2.10
2022-10-22T11:40:03.592Z,2.00
2022-10-22T11:42:34.914Z,2.10
2022-10-22T11:45:28.212Z,2.10
2022-10-22T11:48:10.224Z,1.80
2022-10-22T11:50:48.348Z,2.50
2022-10-22T11:53:15.137Z,2.07
2022-10-22T11:55:55.621Z,2.10
2022-10-22T11:58:28.457Z,1.93
2022-10-22T12:01:02.513Z,2.57
2022-10-22T12:03:32.259Z,2.57
2022-10-22T12:06:05.121Z,2.10
2022-10-22T12:08:34.015Z,2.10
2022-10-22T12:11:04.484Z,1.97
2022-10-22T12:13:59.499Z,1.93
2022-10-22T12:16:37.941Z,2.10
2022-10-22T12:19:24.163Z,1.90
2022-10-22T12:21:59.218Z,1.90
2022-10-22T12:24:32.363Z,1.87
2022-10-22T12:26:59.419Z,1.93
2022-10-22T12:29:27.714Z,2.57
2022-10-22T12:31:55.290Z,2.07
2022-10-22T12:34:23.979Z,1.60
2022-10-22T12:36:53.033Z,1.20
2022-10-22T12:39:27.321Z,1.37
2022-10-22T12:41:55.059Z,1.40
2022-10-22T12:44:21.859Z,1.30
2022-10-22T12:46:52.983Z,1.30
2022-10-22T12:49:36.586Z,1.40
2022-10-22T12:52:08.791Z,1.53
2022-10-22T12:54:39.208Z,1.40
2022-10-22T12:57:06.801Z,1.20
2022-10-22T12:59:39.430Z,1.20
2022-10-22T13:02:21.566Z,1.30
2022-10-22T13:05:27.324Z,1.53
2022-10-22T13:08:03.425Z,1.53
2022-10-22T13:10:39.057Z,1.50
2022-10-22T13:13:09.317Z,1.30
2022-10-22T13:15:39.248Z,1.10
2022-10-22T13:18:22.528Z,1.10
2022-10-22T13:21:02.600Z,1.10
2022-10-22T13:23:31.707Z,1.10
2022-10-22T13:26:02.633Z,0.80
2022-10-22T13:28:32.076Z,0.73
2022-10-22T13:31:15.777Z,1.03
2022-10-22T13:33:45.067Z,0.97
2022-10-22T13:36:15.227Z,0.90
2022-10-22T13:38:48.006Z,0.80
2022-10-22T13:41:27.270Z,0.60
2022-10-22T13:43:55.180Z,0.80
2022-10-22T13:46:23.706Z,0.40
2022-10-22T13:48:53.655Z,0.60
2022-10-22T13:51:23.670Z,0.60
2022-10-22T13:53:52.861Z,0.57
2022-10-22T13:56:21.262Z,0.70
2022-10-22T13:58:49.089Z,0.57
2022-10-22T14:01:25.018Z,0.73
2022-10-22T14:03:54.468Z,0.70
2022-10-22T14:06:22.621Z,0.50
2022-10-22T14:08:55.118Z,0.40
2022-10-22T14:11:22.167Z,0.30
2022-10-22T14:13:49.009Z,0.57
2022-10-22T14:16:21.851Z,0.40
2022-10-22T14:18:49.237Z,0.50
2022-10-22T14:21:17.294Z,0.33
2022-10-22T14:23:46.754Z,0.40
2022-10-22T14:26:30.268Z,0.23
2022-10-22T14:29:09.178Z,0.57
2022-10-22T14:34:12.796Z,0.67
2022-10-22T14:36:39.626Z,0.50
2022-10-22T14:39:06.493Z,0.43
2022-10-22T14:41:33.897Z,0.80
2022-10-22T14:44:01.793Z,0.57
2022-10-22T14:46:28.624Z,0.53
2022-10-22T14:48:55.609Z,0.60
2022-10-22T14:51:23.240Z,0.70
2022-10-22T14:53:50.198Z,0.60
2022-10-22T14:56:21.595Z,0.70
2022-10-22T14:58:49.284Z,1.03
2022-10-22T15:01:16.480Z,1.03
2022-10-22T15:03:43.665Z,0.80
2022-10-22T15:06:10.482Z,1.10
2022-10-22T15:08:37.661Z,1.07
2022-10-22T15:11:10.457Z,1.30
2022-10-22T15:13:37.955Z,0.90
2022-10-22T15:16:09.680Z,2.80
2022-10-22T15:18:37.029Z,0.93
2022-10-22T15:21:07.351Z,1.20
2022-10-22T15:23:34.290Z,1.20
2022-10-22T15:26:01.387Z,1.00
2022-10-22T15:28:28.296Z,0.80
2022-10-22T15:31:00.687Z,1.50
2022-10-22T15:33:29.413Z,1.17
2022-10-22T15:35:57.304Z,1.13
2022-10-22T15:41:08.140Z,0.87
2022-10-22T15:43:35.286Z,1.40
2022-10-22T15:46:20.351Z,1.07
2022-10-22T15:48:47.269Z,1.30
2022-10-22T15:51:17.488Z,1.00
2022-10-22T15:53:45.001Z,1.27
2022-10-22T15:56:12.106Z,1.67
2022-10-22T15:58:39.064Z,1.40
2022-10-22T16:01:08.807Z,1.70
2022-10-22T16:03:36.347Z,0.97
2022-10-22T16:06:04.683Z,1.90
2022-10-22T16:08:31.824Z,1.23
2022-10-22T16:10:59.222Z,1.47
2022-10-22T16:13:26.611Z,2.00
2022-10-22T16:15:53.926Z,1.50
2022-10-22T16:18:23.758Z,1.50
2022-10-22T16:20:50.786Z,1.03
2022-10-22T16:23:19.273Z,1.20
2022-10-22T16:25:46.700Z,1.10
2022-10-22T16:28:13.993Z,1.17
2022-10-22T16:30:41.824Z,1.17
2022-10-22T16:33:10.021Z,0.93
2022-10-22T16:35:41.461Z,1.40
2022-10-22T16:38:10.813Z,1.40
2022-10-22T16:40:37.722Z,1.67
2022-10-22T16:43:05.262Z,1.27
2022-10-22T16:45:32.381Z,1.40
2022-10-22T16:47:59.180Z,1.37
2022-10-22T16:50:26.221Z,1.50
2022-10-22T16:53:25.486Z,1.07
2022-10-22T16:55:52.846Z,1.70
2022-10-22T16:58:19.878Z,1.33
2022-10-22T17:00:46.879Z,1.70
2022-10-22T17:03:13.862Z,1.50
2022-10-22T17:05:40.694Z,1.70
2022-10-22T17:08:08.134Z,1.20
2022-10-22T17:10:37.262Z,1.20
2022-10-22T17:13:04.437Z,1.03
2022-10-22T17:15:32.042Z,1.70
2022-10-22T17:18:04.036Z,1.43
2022-10-22T17:20:30.782Z,1.67
2022-10-22T17:22:57.675Z,1.63
2022-10-22T17:25:32.812Z,1.40
2022-10-22T17:28:02.551Z,1.70
2022-10-22T17:30:30.399Z,1.43
2022-10-22T17:32:57.392Z,1.60
2022-10-22T17:35:24.583Z,1.87
2022-10-22T17:37:51.548Z,1.83
2022-10-22T17:40:18.630Z,1.70
2022-10-22T17:42:45.623Z,1.47
2022-10-22T17:45:12.539Z,2.40
2022-10-22T17:47:39.597Z,1.63
2022-10-22T17:50:07.660Z,1.77
2022-10-22T17:52:35.559Z,1.43
2022-10-22T17:55:03.318Z,1.77
2022-10-22T17:57:30.081Z,1.50
2022-10-22T17:59:56.912Z,1.60
2022-10-22T18:02:23.993Z,1.50
2022-10-22T18:04:52.424Z,1.97
2022-10-22T18:07:20.767Z,1.97
2022-10-22T18:09:48.425Z,3.10
2022-10-22T18:12:18.078Z,2.90
2022-10-22T18:14:46.980Z,3.77
2022-10-22T18:19:47.771Z,3.97
2022-10-22T18:22:14.735Z,4.50
2022-10-22T18:24:41.791Z,4.60
2022-10-22T18:27:08.675Z,3.43
2022-10-22T18:29:35.644Z,2.90
2022-10-22T18:32:09.400Z,2.00
2022-10-22T18:34:39.039Z,1.90
2022-10-22T18:37:06.297Z,1.90
2022-10-22T18:39:33.163Z,1.67
2022-10-22T18:42:00.142Z,1.87
2022-10-22T18:44:27.137Z,1.67
2022-10-22T18:46:53.904Z,2.40
2022-10-22T18:49:20.905Z,3.57
2022-10-22T18:51:52.782Z,4.00
2022-10-22T18:54:23.880Z,3.13
2022-10-22T18:56:53.239Z,3.07
2022-10-22T18:59:22.279Z,3.63
2022-10-22T19:01:51.340Z,2.37
2022-10-22T19:04:18.422Z,2.70
2022-10-22T19:06:45.901Z,3.43
2022-10-22T19:09:16.172Z,2.83
2022-10-22T19:11:44.969Z,2.60
2022-10-22T19:14:13.784Z,3.27
2022-10-22T19:16:40.787Z,2.73
2022-10-22T19:19:08.467Z,2.90
2022-10-22T19:21:36.806Z,2.67
2022-10-22T19:24:04.066Z,3.80
2022-10-22T19:26:31.827Z,3.00
2022-10-22T19:28:59.901Z,2.63
2022-10-22T19:31:27.867Z,2.60
2022-10-22T19:33:55.479Z,2.87
2022-10-22T19:36:27.666Z,2.57
2022-10-22T19:38:55.248Z,3.30
2022-10-22T19:41:24.901Z,3.03
2022-10-22T19:43:54.043Z,2.87
2022-10-22T19:46:22.642Z,2.90
2022-10-22T19:48:51.573Z,4.57
2022-10-22T19:51:20.966Z,4.40
2022-10-22T19:53:48.835Z,2.67
2022-10-22T19:56:20.742Z,2.20
2022-10-22T19:58:48.014Z,2.47
2022-10-22T20:01:17.279Z,2.77
2022-10-22T20:03:44.315Z,3.33
2022-10-22T20:06:12.790Z,2.80
2022-10-22T20:08:40.170Z,2.17
2022-10-22T20:11:11.076Z,3.87
2022-10-22T20:16:07.309Z,3.17
2022-10-22T20:18:34.799Z,3.43
2022-10-22T20:21:09.199Z,3.63
2022-10-22T20:23:36.888Z,3.33
2022-10-22T20:26:05.816Z,3.43
2022-10-22T20:28:33.147Z,4.33
2022-10-22T20:31:00.304Z,4.70
2022-10-22T20:33:27.171Z,5.10
2022-10-22T20:36:01.869Z,4.40
2022-10-22T20:38:29.444Z,3.57
2022-10-22T20:41:04.818Z,2.80
2022-10-22T20:43:32.522Z,2.67
2022-10-22T20:45:59.762Z,2.93
2022-10-22T20:48:31.418Z,3.83
2022-10-22T20:51:00.097Z,2.80
2022-10-22T20:53:28.521Z,3.57
2022-10-22T20:55:59.055Z,3.03
2022-10-22T20:58:27.557Z,3.00
2022-10-22T21:00:55.442Z,3.23
2022-10-22T21:03:22.861Z,3.10
2022-10-22T21:05:50.195Z,2.80
2022-10-22T21:08:17.764Z,3.33
2022-10-22T21:10:46.515Z,2.37
2022-10-22T21:13:14.106Z,2.50
2022-10-22T21:15:41.396Z,2.60
2022-10-22T21:18:08.975Z,2.47
2022-10-22T21:20:35.922Z,2.43
2022-10-22T21:23:03.576Z,2.30
2022-10-22T21:25:30.517Z,2.53
2022-10-22T21:27:57.368Z,3.20
2022-10-22T21:30:24.340Z,4.00
2022-10-22T21:32:52.167Z,3.30
2022-10-22T21:35:19.107Z,3.27
2022-10-22T21:37:46.095Z,3.07
2022-10-22T21:40:13.141Z,3.40
2022-10-22T21:42:40.302Z,3.30
2022-10-22T21:45:12.136Z,3.17
2022-10-22T21:47:41.333Z,2.73
2022-10-22T21:50:08.735Z,2.70
2022-10-22T21:52:35.656Z,3.13
2022-10-22T21:55:02.676Z,3.10
2022-10-22T21:57:29.551Z,2.83
2022-10-22T21:59:56.728Z,2.73
2022-10-22T22:02:24.078Z,3.10
2022-10-22T22:04:54.850Z,3.03
2022-10-22T22:07:22.263Z,2.83
2022-10-22T22:09:50.384Z,2.20
2022-10-22T22:12:17.827Z,2.57
2022-10-22T22:14:44.711Z,2.03
2022-10-22T22:17:11.563Z,2.20
2022-10-22T22:19:39.234Z,2.30
2022-10-22T22:22:06.106Z,2.10
2022-10-22T22:24:33.339Z,2.50
2022-10-22T22:27:00.354Z,3.13
2022-10-22T22:29:27.173Z,2.37
2022-10-22T22:31:54.301Z,2.67
2022-10-22T22:34:21.275Z,2.80
2022-10-22T22:36:49.491Z,2.77
2022-10-22T22:39:22.613Z,3.17
2022-10-22T22:41:49.937Z,3.03
2022-10-22T22:44:17.196Z,2.47
2022-10-22T22:46:44.340Z,2.57
2022-10-22T22:49:12.543Z,2.80
2022-10-22T22:51:39.511Z,2.90
2022-10-22T22:54:06.748Z,2.40
2022-10-22T22:56:34.635Z,2.60
2022-10-22T22:59:01.999Z,2.87
2022-10-22T23:01:31.898Z,2.60
2022-10-22T23:04:06.807Z,3.23
2022-10-22T23:06:39.113Z,2.20
2022-10-22T23:09:08.423Z,2.30
2022-10-22T23:11:35.950Z,2.60
2022-10-22T23:14:04.909Z,2.83
2022-10-22T23:16:34.856Z,3.20
2022-10-22T23:19:01.844Z,3.73
2022-10-22T23:21:32.010Z,3.00
2022-10-22T23:24:01.832Z,2.97
2022-10-22T23:26:31.851Z,3.30
2022-10-22T23:29:03.264Z,2.80
2022-10-22T23:31:30.088Z,3.20
2022-10-22T23:33:56.985Z,2.80
2022-10-22T23:36:24.245Z,3.30
2022-10-22T23:38:51.225Z,3.47
2022-10-22T23:41:18.099Z,3.37
2022-10-22T23:43:44.824Z,3.73
2022-10-22T23:46:12.865Z,4.17
2022-10-22T23:48:40.165Z,3.57
2022-10-22T23:51:09.689Z,3.80
2022-10-22T23:53:37.229Z,3.27
2022-10-22T23:56:09.761Z,3.33
2022-10-22T23:58:36.947Z,3.27
